Time;durP1;ratioP1;P1;durP2;ratioP2;P2;SDS_P1;SDS_P2;PMS_P1;PMS_P2;Temp;Humidity;BMP_temperature;BMP_pressure;BME280_temperature;BME280_humidity;BME280_pressure;Samples;Min_cycle;Max_cycle;Signal;HPM_P1;HPM_P2
2023/09/09 00:01:00;;;;;;;0.80;0.80;;;;;;;;;;5016907;28;20374;-80
2023/09/09 00:03:26;;;;;;;0.60;0.60;;;;;;;;;;5017116;28;20382;-80
2023/09/09 00:05:53;;;;;;;0.52;0.52;;;;;;;;;;5016957;28;20025;-80
2023/09/09 00:08:19;;;;;;;0.80;0.80;;;;;;;;;;5016716;28;20064;-80
2023/09/09 00:10:45;;;;;;;0.50;0.50;;;;;;;;;;5017703;28;20021;-80
2023/09/09 00:13:12;;;;;;;0.98;0.90;;;;;;;;;;5016634;28;20036;-80
2023/09/09 00:15:38;;;;;;;0.57;0.57;;;;;;;;;;5016668;28;20032;-80
2023/09/09 00:18:04;;;;;;;0.60;0.60;;;;;;;;;;5016794;28;20025;-80
2023/09/09 00:20:34;;;;;;;0.60;0.60;;;;;;;;;;5034396;28;20102;-80
2023/09/09 00:23:07;;;;;;;0.50;0.50;;;;;;;;;;5016877;28;20159;-81
2023/09/09 00:25:37;;;;;;;0.50;0.50;;;;;;;;;;5016549;28;20117;-81
2023/09/09 00:28:04;;;;;;;0.50;0.50;;;;;;;;;;5016290;28;20164;-80
2023/09/09 00:30:30;;;;;;;0.60;0.60;;;;;;;;;;5016620;28;20075;-80
2023/09/09 00:32:58;;;;;;;0.52;0.52;;;;;;;;;;5016303;28;20095;-80
2023/09/09 00:35:24;;;;;;;0.50;0.50;;;;;;;;;;5016286;28;20525;-80
2023/09/09 00:37:50;;;;;;;0.63;0.63;;;;;;;;;;5016535;28;20025;-81
2023/09/09 00:40:16;;;;;;;0.60;0.60;;;;;;;;;;5016380;28;20021;-80
2023/09/09 00:42:42;;;;;;;0.50;0.50;;;;;;;;;;5016052;28;20461;-80
2023/09/09 00:45:09;;;;;;;0.50;0.50;;;;;;;;;;5016863;28;20339;-80
2023/09/09 00:47:35;;;;;;;0.40;0.40;;;;;;;;;;5016241;28;20116;-80
2023/09/09 00:50:03;;;;;;;0.40;0.40;;;;;;;;;;5016018;28;20075;-80
2023/09/09 00:52:29;;;;;;;0.60;0.60;;;;;;;;;;5016248;28;20029;-81
2023/09/09 00:54:55;;;;;;;1.38;0.68;;;;;;;;;;5016229;28;20021;-80
2023/09/09 00:57:21;;;;;;;0.85;0.82;;;;;;;;;;5016030;28;20029;-80
2023/09/09 00:59:48;;;;;;;0.50;0.50;;;;;;;;;;5016142;28;20025;-80
2023/09/09 01:02:14;;;;;;;0.60;0.60;;;;;;;;;;5015769;28;20485;-80
2023/09/09 01:04:40;;;;;;;0.50;0.50;;;461.30;2380.80;;;;;;5016366;28;20044;-80
2023/09/09 01:07:06;;;;;;;0.60;0.60;;;461.10;2380.80;;;;;;5016153;28;20378;-80
2023/09/09 01:09:33;;;;;;;0.70;0.70;;;461.00;2380.80;;;;;;5015892;28;20116;-80
2023/09/09 01:11:59;;;;;;;0.60;0.60;;;461.20;2380.80;;;;;;5016173;28;20032;-81
2023/09/09 01:14:25;;;;;;;0.50;0.50;;;436.10;2355.20;;;;;;5016519;28;20029;-80
2023/09/09 01:16:53;;;;;;;0.80;0.75;;;;;;;;;;5015572;28;20491;-80
2023/09/09 01:19:27;;;;;;;0.47;0.47;;;;;;;;;;5015840;28;20489;-80
2023/09/09 01:22:00;;;;;;;0.73;0.70;;;;;;;;;;5016680;28;20028;-80
2023/09/09 01:24:26;;;;;;;0.50;0.50;;;;;;;;;;5015759;28;20374;-80
2023/09/09 01:26:52;;;;;;;1.08;1.08;;;;;;;;;;5018215;28;20021;-80
2023/09/09 01:29:18;;;;;;;0.68;0.68;;;;;;;;;;5019987;28;20021;-81
2023/09/09 01:31:44;;;;;;;0.60;0.60;;;;;;;;;;5037141;28;20032;-80
2023/09/09 01:34:10;;;;;;;0.50;0.50;;;;;;;;;;5019812;28;20050;-81
2023/09/09 01:36:36;;;;;;;0.55;0.55;;;;;;;;;;5019880;28;20029;-81
2023/09/09 01:39:03;;;;;;;0.50;0.50;;;;;;;;;;5019519;28;20021;-81
2023/09/09 01:41:29;;;;;;;0.50;0.50;;;;;;;;;;5019738;28;20017;-81
2023/09/09 01:43:56;;;;;;;0.57;0.57;;;;;;;;;;5019654;28;20021;-81
2023/09/09 01:46:22;;;;;;;0.60;0.60;;;;;;;;;;5019473;28;20124;-81
2023/09/09 01:48:48;;;;;;;0.60;0.60;;;;;;;;;;5019623;28;20028;-81
2023/09/09 01:51:14;;;;;;;0.68;0.68;;;;;;;;;;5019848;28;20021;-81
2023/09/09 01:53:40;;;;;;;0.50;0.50;;;;;;;;;;5019540;28;20352;-81
2023/09/09 01:56:06;;;;;;;0.50;0.50;;;;;;;;;;5019439;28;20116;-81
2023/09/09 01:58:33;;;;;;;0.60;0.60;;;;;;;;;;5019829;28;20176;-81
2023/09/09 02:00:59;;;;;;;0.50;0.50;;;;;;;;;;5019474;28;20045;-81
2023/09/09 02:03:25;;;;;;;0.70;0.70;;;;;;;;;;5019797;28;20501;-80
2023/09/09 02:05:51;;;;;;;0.70;0.70;;;;;;;;;;5019020;28;20374;-81
2023/09/09 02:08:17;;;;;;;0.60;0.60;;;;;;;;;;5019248;28;20026;-81
2023/09/09 02:10:43;;;;;;;0.77;0.77;;;;;;;;;;5019302;28;20052;-81
2023/09/09 02:13:10;;;;;;;0.60;0.60;;;;;;;;;;5018839;28;20021;-81
2023/09/09 02:15:36;;;;;;;0.52;0.52;;;;;;;;;;5019126;28;20079;-81
2023/09/09 02:18:02;;;;;;;0.52;0.52;;;;;;;;;;5019120;28;20117;-81
2023/09/09 02:20:28;;;;;;;0.70;0.70;;;;;;;;;;5018689;28;20026;-81
2023/09/09 02:22:54;;;;;;;0.75;0.70;;;;;;;;;;5018892;28;20083;-80
2023/09/09 02:25:20;;;;;;;0.50;0.50;;;;;;;;;;5018936;28;20060;-80
2023/09/09 02:27:46;;;;;;;0.50;0.50;;;;;;;;;;5018647;28;20029;-80
2023/09/09 02:30:12;;;;;;;0.50;0.50;;;;;;;;;;5018762;28;20029;-80
2023/09/09 02:32:39;;;;;;;0.88;0.88;;;;;;;;;;5018484;28;20045;-81
2023/09/09 02:35:07;;;;;;;0.73;0.73;;;;;;;;;;5018543;28;20075;-80
2023/09/09 02:37:34;;;;;;;0.70;0.70;;;;;;;;;;5018646;28;20116;-80
2023/09/09 02:40:00;;;;;;;0.63;0.63;;;;;;;;;;5018390;28;20471;-81
2023/09/09 02:42:26;;;;;;;0.55;0.55;;;;;;;;;;5018633;28;20026;-80
2023/09/09 02:44:52;;;;;;;0.50;0.50;;;;;;;;;;5018650;28;20108;-80
2023/09/09 02:47:19;;;;;;;1.02;0.85;;;;;;;;;;5018919;28;20051;-80
2023/09/09 02:49:45;;;;;;;0.50;0.50;;;;;;;;;;5018879;28;20482;-81
2023/09/09 02:52:13;;;;;;;0.68;0.68;;;;;;;;;;5018549;28;20112;-80
2023/09/09 02:54:40;;;;;;;0.63;0.63;;;;;;;;;;5018618;28;20021;-80
2023/09/09 02:57:06;;;;;;;0.60;0.60;;;;;;;;;;5018487;28;20068;-80
2023/09/09 02:59:35;;;;;;;0.60;0.60;;;;;;;;;;5018360;28;20488;-80
2023/09/09 03:02:01;;;;;;;3.30;0.70;;;;;;;;;;5019958;28;20052;-81
2023/09/09 03:04:28;;;;;;;0.60;0.60;;;;;;;;;;5043776;28;20014;-80
2023/09/09 03:06:54;;;;;;;0.57;0.57;;;;;;;;;;5023143;28;20073;-80
2023/09/09 03:09:23;;;;;;;0.70;0.70;;;;;;;;;;5018169;28;20488;-80
2023/09/09 03:11:49;;;;;;;0.73;0.70;;;;;;;;;;5018019;28;20017;-80
2023/09/09 03:14:15;;;;;;;0.63;0.63;;;;;;;;;;5018563;28;20022;-80
2023/09/09 03:16:41;;;;;;;0.68;0.68;;;;;;;;;;5017767;28;20072;-81
2023/09/09 03:19:07;;;;;;;0.70;0.70;;;;;;;;;;5017923;28;20032;-80
2023/09/09 03:21:33;;;;;;;0.60;0.60;;;;;;;;;;5017927;28;20477;-80
2023/09/09 03:23:59;;;;;;;0.57;0.57;;;;;;;;;;5017530;28;20021;-81
2023/09/09 03:26:25;;;;;;;0.60;0.60;;;;;;;;;;5017707;28;20037;-80
2023/09/09 03:28:52;;;;;;;0.60;0.60;;;;;;;;;;5017773;28;20030;-81
2023/09/09 03:31:18;;;;;;;0.50;0.50;;;;;;;;;;5017458;28;20026;-81
2023/09/09 03:33:44;;;;;;;0.70;0.70;;;;;;;;;;5017538;28;20450;-81
2023/09/09 03:36:10;;;;;;;0.70;0.70;;;;;;;;;;5018137;28;20043;-80
2023/09/09 03:38:37;;;;;;;0.70;0.70;;;;;;;;;;5017527;28;20021;-81
2023/09/09 03:41:07;;;;;;;0.50;0.50;;;;;;;;;;5017565;28;20026;-80
2023/09/09 03:43:34;;;;;;;0.60;0.60;;;;;;;;;;5017264;28;20375;-81
2023/09/09 03:46:00;;;;;;;1.95;0.80;;;;;;;;;;5017050;28;20021;-82
2023/09/09 03:48:26;;;;;;;0.57;0.57;;;;;;;;;;5017067;28;20434;-81
2023/09/09 03:50:57;;;;;;;0.80;0.70;;;;;;;;;;5017045;28;20108;-81
2023/09/09 03:53:23;;;;;;;0.65;0.65;;;;;;;;;;5018117;28;20021;-82
2023/09/09 03:55:49;;;;;;;0.60;0.60;;;;;;;;;;5017246;28;20021;-82
2023/09/09 03:58:15;;;;;;;0.60;0.60;;;;;;;;;;5016998;28;20104;-82
2023/09/09 04:00:41;;;;;;;0.60;0.60;;;;;;;;;;5017253;28;20056;-82
2023/09/09 04:03:07;;;;;;;0.60;0.60;;;;;;;;;;5017206;28;20033;-82
2023/09/09 04:05:33;;;;;;;0.63;0.63;;;;;;;;;;5016900;28;20064;-82
2023/09/09 04:08:03;;;;;;;0.60;0.60;;;;;;;;;;5016926;28;20068;-81
2023/09/09 04:10:29;;;;;;;0.77;0.70;;;;;;;;;;5017075;28;20022;-81
2023/09/09 04:12:55;;;;;;;0.60;0.60;;;;;;;;;;5016822;28;20022;-81
2023/09/09 04:15:21;;;;;;;0.65;0.65;;;;;;;;;;5016863;28;20167;-81
2023/09/09 04:17:47;;;;;;;0.70;0.70;;;;;;;;;;5016854;28;20033;-81
2023/09/09 04:20:13;;;;;;;1.13;1.00;;;;;;;;;;5016507;28;20374;-81
2023/09/09 04:22:39;;;;;;;0.60;0.60;;;;;;;;;;5034263;28;20022;-81
2023/09/09 04:25:05;;;;;;;0.68;0.65;;;;;;;;;;5016596;28;20021;-81
2023/09/09 04:27:32;;;;;;;0.98;0.77;;;;;;;;;;5016731;28;20033;-82
2023/09/09 04:29:58;;;;;;;1.13;0.80;;;;;;;;;;5034459;28;20036;-81
2023/09/09 04:32:24;;;;;;;0.82;0.80;;;;;;;;;;5016333;28;20445;-81
2023/09/09 04:34:50;;;;;;;0.60;0.60;;;;;;;;;;5016456;28;20483;-81
2023/09/09 04:37:16;;;;;;;0.80;0.80;;;;;;;;;;5016656;28;20033;-81
2023/09/09 04:39:42;;;;;;;0.75;0.73;;;;;;;;;;5016313;28;20022;-81
2023/09/09 04:42:09;;;;;;;0.70;0.70;;;;;;;;;;5016449;28;20029;-82
2023/09/09 04:44:35;;;;;;;0.88;0.70;;;;;;;;;;5016367;28;20072;-82
2023/09/09 04:47:02;;;;;;;0.88;0.73;;;;;;;;;;5016055;28;20037;-82
2023/09/09 04:49:28;;;;;;;0.70;0.70;;;;;;;;;;5016384;28;20032;-82
2023/09/09 04:51:54;;;;;;;0.52;0.52;;;;;;;;;;5016325;28;20552;-82
2023/09/09 04:54:20;;;;;;;0.70;0.70;;;;;;;;;;5016086;28;20029;-82
2023/09/09 04:56:47;;;;;;;0.80;0.80;;;;;;;;;;5033976;28;20033;-82
2023/09/09 04:59:13;;;;;;;0.60;0.60;;;;;;;;;;5016090;28;20022;-82
2023/09/09 05:01:39;;;;;;;0.70;0.70;;;;;;;;;;5015228;28;20044;-82
2023/09/09 05:04:05;;;;;;;0.75;0.75;;;;;;;;;;5016175;28;20379;-82
2023/09/09 05:06:32;;;;;;;0.80;0.70;;;;;;;;;;5016104;28;20029;-82
2023/09/09 05:08:58;;;;;;;0.65;0.60;;;;;;;;;;5015814;28;20026;-82
2023/09/09 05:11:24;;;;;;;0.47;0.47;;;;;;;;;;5016006;28;20037;-82
2023/09/09 05:13:50;;;;;;;1.23;1.00;;;;;;;;;;5034057;28;20021;-82
2023/09/09 05:16:16;;;;;;;0.70;0.70;;;;;;;;;;5015724;28;20025;-81
2023/09/09 05:18:42;;;;;;;0.70;0.70;;;;;;;;;;5015939;28;20116;-82
2023/09/09 05:21:08;;;;;;;0.73;0.70;;;;;;;;;;5016102;28;20528;-82
2023/09/09 05:23:35;;;;;;;0.52;0.52;;;;;;;;;;5015768;28;20029;-82
2023/09/09 05:26:02;;;;;;;0.60;0.60;;;;;;;;;;5016382;28;20017;-82
2023/09/09 05:28:28;;;;;;;0.70;0.70;;;;;;;;;;5015666;28;20033;-82
2023/09/09 05:30:54;;;;;;;0.80;0.70;;;;;;;;;;5015839;28;20075;-82
2023/09/09 05:33:20;;;;;;;0.90;0.85;;;;;;;;;;5015936;28;20046;-82
2023/09/09 05:35:50;;;;;;;1.52;0.68;;;;;;;;;;5015438;28;20025;-82
2023/09/09 05:38:16;;;;;;;0.60;0.60;;;;;;;;;;5016561;28;20026;-82
2023/09/09 05:40:42;;;;;;;0.60;0.60;;;;;;;;;;5015772;28;20111;-82
2023/09/09 05:43:08;;;;;;;0.75;0.70;;;;;;;;;;5015650;28;20405;-81
2023/09/09 05:45:34;;;;;;;0.75;0.70;;;;;;;;;;5015790;28;20033;-82
2023/09/09 05:48:00;;;;;;;1.67;0.80;;;;;;;;;;5015687;28;20033;-82
2023/09/09 05:50:27;;;;;;;0.93;0.90;;;;;;;;;;5033009;28;20033;-82
2023/09/09 05:52:53;;;;;;;0.70;0.70;;;;;;;;;;5015696;28;20025;-82
2023/09/09 05:55:19;;;;;;;1.58;0.90;;;;;;;;;;5015726;28;20032;-81
2023/09/09 05:57:45;;;;;;;1.83;1.05;;;;;;;;;;5015282;28;20030;-82
2023/09/09 06:00:11;;;;;;;0.70;0.70;;;;;;;;;;5033451;28;20021;-82
2023/09/09 06:02:37;;;;;;;1.42;0.90;;;;;;;;;;5015185;28;20022;-81
2023/09/09 06:05:05;;;;;;;0.60;0.60;;;;;;;;;;5015123;28;20060;-81
2023/09/09 06:07:31;;;;;;;0.68;0.68;;;;;;;;;;5015237;28;20025;-81
2023/09/09 06:09:57;;;;;;;0.70;0.70;;;;;;;;;;5015150;28;20032;-80
2023/09/09 06:12:23;;;;;;;0.60;0.60;;;;;;;;;;5016812;28;20023;-81
2023/09/09 06:14:49;;;;;;;0.70;0.70;;;;;;;;;;5036870;28;20032;-81
2023/09/09 06:17:15;;;;;;;0.63;0.63;;;;;;;;;;5018511;28;20037;-81
2023/09/09 06:19:43;;;;;;;0.50;0.50;;;;;;;;;;5019158;28;20021;-81
2023/09/09 06:22:09;;;;;;;0.70;0.70;;;;;;;;;;5019481;28;20029;-82
2023/09/09 06:24:35;;;;;;;0.60;0.60;;;;;;;;;;5018657;28;20029;-82
2023/09/09 06:27:01;;;;;;;0.60;0.60;;;;;;;;;;5021817;28;20108;-81
2023/09/09 06:29:29;;;;;;;0.50;0.50;;;;;;;;;;5018861;28;20048;-81
2023/09/09 06:31:55;;;;;;;0.60;0.60;;;;;;;;;;5036251;28;20049;-81
2023/09/09 06:34:21;;;;;;;0.70;0.70;;;;;;;;;;4999914;28;20051;-79
2023/09/09 06:36:47;;;;;;;0.60;0.60;;;;;;;;;;4995946;28;20089;-79
2023/09/09 06:39:13;;;;;;;0.70;0.70;;;;;;;;;;4995573;28;20033;-80
2023/09/09 06:41:39;;;;;;;0.50;0.50;;;;;;;;;;4995774;28;20121;-80
2023/09/09 06:44:06;;;;;;;0.60;0.60;;;;;;;;;;4995798;28;20076;-80
2023/09/09 06:46:32;;;;;;;0.68;0.68;;;;;;;;;;4995582;28;20084;-80
2023/09/09 06:48:58;;;;;;;0.70;0.70;;;;;;;;;;4995791;28;20475;-79
2023/09/09 06:51:24;;;;;;;0.63;0.63;;;;;;;;;;4995590;28;20085;-80
2023/09/09 06:53:50;;;;;;;1.35;1.05;;;;;;;;;;4995304;28;20022;-80
2023/09/09 06:56:17;;;;;;;0.60;0.60;;;;;;;;;;4995492;28;20026;-80
2023/09/09 06:58:43;;;;;;;0.50;0.50;;;;;;;;;;4995573;28;20022;-80
2023/09/09 07:01:10;;;;;;;0.60;0.60;;;;;;;;;;4996490;28;20019;-80
2023/09/09 07:03:36;;;;;;;1.67;0.77;;;;;;;;;;4997067;28;20426;-80
2023/09/09 07:06:03;;;;;;;0.65;0.65;;;;;;;;;;4995630;28;20026;-80
2023/09/09 07:08:29;;;;;;;0.60;0.60;;;;;;;;;;5015841;28;20624;-78
2023/09/09 07:10:56;;;;;;;0.70;0.70;;;;;;;;;;5016056;28;20066;-80
2023/09/09 07:13:22;;;;;;;0.70;0.70;;;;;;;;;;4995572;28;20109;-80
2023/09/09 07:15:55;;;;;;;0.50;0.50;;;;;;;;;;4996038;28;20029;-80
2023/09/09 07:18:21;;;;;;;0.50;0.50;;;;;;;;;;4995518;28;20023;-80
2023/09/09 07:20:48;;;;;;;0.70;0.70;;;;;;;;;;4994837;28;20037;-80
2023/09/09 07:23:15;;;;;;;1.02;0.75;;;;;;;;;;4995377;28;20162;-80
2023/09/09 07:25:47;;;;;;;0.60;0.60;;;;;;;;;;4994841;28;20046;-80
2023/09/09 07:28:13;;;;;;;1.57;0.90;;;;;;;;;;4994705;28;20110;-80
2023/09/09 07:30:39;;;;;;;0.55;0.55;;;;;;;;;;4995472;28;20476;-80
2023/09/09 07:33:05;;;;;;;0.55;0.55;;;;;;;;;;4994732;28;20046;-80
2023/09/09 07:35:31;;;;;;;1.33;0.90;;;;;;;;;;4994960;28;20022;-80
2023/09/09 07:37:58;;;;;;;0.60;0.60;;;;;;;;;;4994755;28;20029;-81
2023/09/09 07:40:24;;;;;;;0.65;0.60;;;;;;;;;;4994633;28;20159;-80
2023/09/09 07:42:50;;;;;;;0.80;0.80;;;;;;;;;;4994581;28;20451;-81
2023/09/09 07:45:19;;;;;;;0.50;0.50;;;;;;;;;;4995635;28;20109;-83
2023/09/09 07:47:45;;;;;;;0.50;0.50;;;;;;;;;;4994964;28;20085;-84
2023/09/09 07:50:11;;;;;;;0.50;0.50;;;;;;;;;;4994913;28;20029;-83
2023/09/09 07:52:37;;;;;;;0.47;0.47;;;;;;;;;;4995132;28;20027;-83
2023/09/09 07:55:04;;;;;;;0.75;0.70;;;;;;;;;;4995092;28;20504;-82
2023/09/09 07:57:30;;;;;;;0.50;0.50;;;;;;;;;;4995088;28;20026;-87
2023/09/09 07:59:56;;;;;;;0.50;0.50;;;;;;;;;;4994795;28;20023;-82
2023/09/09 08:02:23;;;;;;;1.05;0.60;;;;;;;;;;4994124;28;20113;-82
2023/09/09 08:04:49;;;;;;;1.02;0.60;;;;;;;;;;4994418;28;20030;-83
2023/09/09 08:07:15;;;;;;;0.60;0.60;;;;;;;;;;4994384;28;20022;-82
2023/09/09 08:09:41;;;;;;;0.50;0.50;;;;;;;;;;4994443;28;20125;-82
2023/09/09 08:12:08;;;;;;;0.50;0.50;;;;;;;;;;4994252;28;20023;-83
2023/09/09 08:14:34;;;;;;;0.50;0.50;;;;;;;;;;4994517;28;20477;-83
2023/09/09 08:17:00;;;;;;;0.80;0.70;;;;;;;;;;4994026;28;20030;-83
2023/09/09 08:19:26;;;;;;;0.82;0.63;;;;;;;;;;4994249;28;20461;-83
2023/09/09 08:21:52;;;;;;;0.73;0.73;;;;;;;;;;4994356;28;20060;-83
2023/09/09 08:24:18;;;;;;;0.90;0.60;;;;;;;;;;4994223;28;20026;-83
2023/09/09 08:26:44;;;;;;;0.85;0.60;;;;;;;;;;4994626;28;20505;-83
2023/09/09 08:29:10;;;;;;;0.45;0.45;;;;;;;;;;4994210;28;20049;-83
2023/09/09 08:31:36;;;;;;;0.50;0.50;;;;;;;;;;4993713;28;20028;-82
2023/09/09 08:34:02;;;;;;;0.40;0.40;;;;;;;;;;4993704;28;20054;-82
2023/09/09 08:36:29;;;;;;;0.75;0.73;;;;;;;;;;4995288;28;20033;-83
2023/09/09 08:38:57;;;;;;;0.40;0.40;;;;;;;;;;4993831;28;20030;-83
2023/09/09 08:41:41;;;;;;;0.40;0.40;;;;;;;;;;4994670;28;20380;-82
2023/09/09 08:44:07;;;;;;;0.55;0.50;;;;;;;;;;4994706;28;20054;-83
2023/09/09 08:46:33;;;;;;;0.73;0.60;;;;;;;;;;4993570;28;20471;-82
2023/09/09 08:49:02;;;;;;;0.52;0.52;;;;;;;;;;4993630;28;20145;-82
2023/09/09 08:51:29;;;;;;;0.50;0.50;;;;;;;;;;4994502;28;20026;-82
2023/09/09 08:53:56;;;;;;;0.60;0.60;;;;;;;;;;4993335;28;20468;-81
2023/09/09 08:56:22;;;;;;;0.40;0.40;;;;;;;;;;4993805;28;20029;-82
2023/09/09 08:58:48;;;;;;;0.50;0.50;;;;;;;;;;4992424;28;20532;-82
2023/09/09 09:01:16;;;;;;;0.50;0.47;;;;;;;;;;4993329;28;20034;-81
2023/09/09 09:03:43;;;;;;;0.40;0.40;;;;;;;;;;4993758;28;20022;-81
2023/09/09 09:06:09;;;;;;;0.40;0.40;;;;;;;;;;4993038;28;20062;-82
2023/09/09 09:08:36;;;;;;;0.50;0.50;;;;;;;;;;4993465;28;20026;-82
2023/09/09 09:11:03;;;;;;;0.30;0.30;;;;;;;;;;4992773;28;20023;-81
2023/09/09 09:13:33;;;;;;;0.40;0.40;;;;;;;;;;4993438;28;20467;-82
2023/09/09 09:16:00;;;;;;;0.30;0.30;;;;;;;;;;4994562;28;20030;-82
2023/09/09 09:18:26;;;;;;;0.40;0.40;;;;;;;;;;4994632;28;20537;-81
2023/09/09 09:20:53;;;;;;;0.30;0.30;;;;;;;;;;4992825;28;20034;-81
2023/09/09 09:23:19;;;;;;;0.60;0.52;;;;;;;;;;4993129;28;20018;-81
2023/09/09 09:25:47;;;;;;;0.50;0.50;;;;;;;;;;4993032;28;20053;-81
2023/09/09 09:28:14;;;;;;;0.30;0.30;;;;;;;;;;4993517;28;20050;-82
2023/09/09 09:30:41;;;;;;;0.40;0.40;;;;;;;;;;4993642;28;20029;-82
2023/09/09 09:33:07;;;;;;;0.30;0.30;;;;;;;;;;4993044;28;20201;-82
2023/09/09 09:35:34;;;;;;;0.40;0.40;;;;;;;;;;4993037;28;20030;-81
2023/09/09 09:38:15;;;;;;;0.40;0.40;;;;;;;;;;4992976;28;20027;-81
2023/09/09 09:40:41;;;;;;;0.32;0.32;;;;;;;;;;4993317;28;20101;-81
2023/09/09 09:43:20;;;;;;;0.45;0.45;;;;;;;;;;4992888;28;20077;-81
2023/09/09 09:45:47;;;;;;;0.70;0.68;;;;;;;;;;4992951;28;20165;-83
2023/09/09 09:48:25;;;;;;;0.35;0.35;;;;;;;;;;4996012;28;20462;-81
2023/09/09 09:50:54;;;;;;;0.30;0.30;;;;;;;;;;4996495;28;20030;-82
2023/09/09 09:53:21;;;;;;;0.60;0.55;;;;;;;;;;4994819;28;20034;-81
2023/09/09 09:55:47;;;;;;;0.52;0.47;;;;;;;;;;4995453;28;20034;-82
2023/09/09 09:58:14;;;;;;;0.43;0.40;;;;;;;;;;4996019;28;20031;-82
2023/09/09 10:00:40;;;;;;;1.02;0.88;;;;;;;;;;4996748;28;20061;-82
2023/09/09 10:03:07;;;;;;;0.30;0.30;;;;;;;;;;4995479;28;20026;-81
2023/09/09 10:05:34;;;;;;;0.40;0.40;;;;;;;;;;4999274;28;20548;-83
2023/09/09 10:08:22;;;;;;;0.32;0.32;;;;;;;;;;4997430;28;20034;-83
2023/09/09 10:10:58;;;;;;;0.43;0.40;;;;;;;;;;5003053;28;20080;-81
2023/09/09 10:13:33;;;;;;;0.30;0.30;;;;;;;;;;5003838;28;20431;-80
2023/09/09 10:16:00;;;;;;;0.32;0.32;;;;;;;;;;5011629;28;20518;-80
2023/09/09 10:18:27;;;;;;;0.20;0.20;;;;;;;;;;4999939;28;20470;-80
2023/09/09 10:20:53;;;;;;;0.30;0.30;;;;;;;;;;5008073;28;20022;-81
2023/09/09 10:23:22;;;;;;;0.20;0.20;;;;;;;;;;5006023;28;20026;-81
2023/09/09 10:25:50;;;;;;;1.45;0.43;;;;;;;;;;4999594;28;20333;-82
2023/09/09 10:28:20;;;;;;;0.30;0.30;;;;;;;;;;5011792;28;20030;-82
2023/09/09 10:30:48;;;;;;;0.40;0.40;;;;;;;;;;5002020;28;20423;-81
2023/09/09 10:33:14;;;;;;;0.32;0.30;;;;;;;;;;5004157;28;20086;-82
2023/09/09 10:35:41;;;;;;;0.40;0.40;;;;;;;;;;5009543;28;20022;-82
2023/09/09 10:38:08;;;;;;;0.30;0.30;;;;;;;;;;4998385;28;20037;-81
2023/09/09 10:40:35;;;;;;;0.60;0.50;;;;;;;;;;5010041;28;20018;-81
2023/09/09 10:43:01;;;;;;;0.57;0.40;;;;;;;;;;5004754;28;20090;-82
2023/09/09 10:45:28;;;;;;;0.50;0.50;;;;;;;;;;5002473;28;20483;-81
2023/09/09 10:47:56;;;;;;;0.30;0.30;;;;;;;;;;5011134;28;20524;-82
2023/09/09 10:50:23;;;;;;;0.20;0.20;;;;;;;;;;4994859;28;20048;-81
2023/09/09 10:53:12;;;;;;;0.40;0.40;;;;;;;;;;5014351;28;20014;-82
2023/09/09 10:55:38;;;;;;;0.35;0.30;;;;;;;;;;5017303;28;20030;-80
2023/09/09 10:58:07;;;;;;;3.63;0.47;;;768.30;1715.20;;;;;;5030668;28;20084;-81
2023/09/09 11:00:41;;;;;;;0.30;0.30;;;768.30;1715.20;;;;;;5002533;28;20018;-81
2023/09/09 11:03:11;;;;;;;0.30;0.30;;;;;;;;;;5007386;28;20060;-81
2023/09/09 11:05:55;;;;;;;0.45;0.40;;;;;;;;;;5008326;28;20031;-82
2023/09/09 11:08:35;;;;;;;0.30;0.30;;;768.90;1664.00;;;;;;4994904;28;20026;-82
2023/09/09 11:11:11;;;;;;;0.20;0.20;;;768.90;1689.60;;;;;;5014070;28;20530;-80
2023/09/09 11:13:50;;;;;;;0.45;0.30;;;793.60;1689.60;;;;;;5000768;28;20027;-79
2023/09/09 11:16:27;;;;;;;0.20;0.20;;;;;;;;;;5012245;28;20085;-80
2023/09/09 11:18:53;;;;;;;0.40;0.40;;;;;;;;;;5002268;28;20463;-80
2023/09/09 11:21:24;;;;;;;0.20;0.20;;;;;;;;;;5002957;28;20192;-79
2023/09/09 11:23:53;;;;;;;0.20;0.20;;;;;;;;;;5011829;28;20108;-80
2023/09/09 11:26:19;;;;;;;0.35;0.32;;;;;;;;;;4997351;28;20465;-79
2023/09/09 11:28:47;;;;;;;0.20;0.20;;;;;;;;;;5007510;28;20372;-80
2023/09/09 11:31:14;;;;;;;0.43;0.30;;;;;;;;;;5005468;28;20415;-79
2023/09/09 11:33:40;;;;;;;0.25;0.25;;;;;;;;;;4999598;28;20492;-80
2023/09/09 11:36:06;;;;;;;0.22;0.22;;;;;;;;;;5010450;28;20370;-81
2023/09/09 11:38:33;;;;;;;0.30;0.25;;;;;;;;;;4999261;28;20026;-81
2023/09/09 11:40:59;;;;;;;0.25;0.25;;;;;;;;;;5006384;28;20043;-80
2023/09/09 11:43:25;;;;;;;0.43;0.40;;;;;;;;;;5007937;28;20068;-81
2023/09/09 11:45:52;;;;;;;0.30;0.30;;;;;;;;;;4996438;28;20125;-80
2023/09/09 11:48:18;;;;;;;0.30;0.30;;;;;;;;;;4994383;28;20104;-82
2023/09/09 11:50:45;;;;;;;0.50;0.35;;;;;;;;;;4995023;28;20503;-81
2023/09/09 11:53:12;;;;;;;0.22;0.22;;;;;;;;;;4993224;28;20400;-82
2023/09/09 11:55:39;;;;;;;0.30;0.30;;;;;;;;;;4996858;28;20037;-81
2023/09/09 11:58:08;;;;;;;0.10;0.10;;;;;;;;;;5007879;28;20034;-81
2023/09/09 12:00:34;;;;;;;0.13;0.13;;;;;;;;;;4994051;28;20023;-81
2023/09/09 12:03:00;;;;;;;0.20;0.20;;;;;;;;;;4993324;28;20125;-81
2023/09/09 12:05:30;;;;;;;0.22;0.22;;;;;;;;;;4994266;28;20033;-81
2023/09/09 12:08:00;;;;;;;0.32;0.32;;;;;;;;;;4993607;28;20117;-82
2023/09/09 12:10:31;;;;;;;0.30;0.30;;;;;;;;;;4995212;28;20034;-81
2023/09/09 12:12:58;;;;;;;0.43;0.30;;;;;;;;;;4995194;28;20018;-81
2023/09/09 12:15:24;;;;;;;0.25;0.20;;;;;;;;;;4993500;28;20042;-81
2023/09/09 12:17:51;;;;;;;0.10;0.10;;;;;;;;;;4993703;28;20026;-81
2023/09/09 12:20:17;;;;;;;0.82;0.40;;;;;;;;;;4993829;28;20026;-80
2023/09/09 12:22:49;;;;;;;0.22;0.22;;;845.40;1587.20;;;;;;4993487;28;20019;-81
2023/09/09 12:25:33;;;;;;;0.20;0.20;;;845.40;1587.20;;;;;;4993763;28;20061;-81
2023/09/09 12:27:59;;;;;;;0.57;0.35;;;845.70;1510.40;;;;;;4993196;28;20389;-81
2023/09/09 12:30:37;;;;;;;0.47;0.30;;;845.50;1510.40;;;;;;4993537;28;20030;-80
2023/09/09 12:33:09;;;;;;;0.80;0.30;;;845.40;1612.80;;;;;;4993397;28;20464;-80
2023/09/09 12:35:49;;;;;;;0.20;0.20;;;;;;;;;;4993183;28;20387;-80
2023/09/09 12:38:15;;;;;;;0.22;0.22;;;;;;;;;;4994771;28;20077;-81
2023/09/09 12:40:48;;;;;;;0.20;0.20;;;;;;;;;;4993457;28;20073;-80
2023/09/09 12:43:14;;;;;;;0.13;0.13;;;;;;;;;;4993236;28;20018;-81
2023/09/09 12:45:46;;;;;;;0.20;0.20;;;;;;;;;;4993375;28;20072;-80
2023/09/09 12:48:12;;;;;;;0.40;0.30;;;;;;;;;;4994479;28;20149;-81
2023/09/09 12:50:39;;;;;;;0.17;0.17;;;;;;;;;;4993000;28;20076;-81
2023/09/09 12:53:05;;;;;;;0.40;0.30;;;;;;;;;;4994137;28;20026;-80
2023/09/09 12:55:31;;;;;;;0.28;0.28;;;;;;;;;;4994457;28;20547;-81
2023/09/09 12:57:57;;;;;;;0.40;0.30;;;;;;;;;;4992817;28;20026;-82
2023/09/09 13:00:24;;;;;;;0.52;0.40;;;;;;;;;;4993605;28;20499;-82
2023/09/09 13:02:50;;;;;;;0.43;0.30;;;;;;;;;;4993189;28;20117;-81
2023/09/09 13:05:17;;;;;;;0.15;0.10;;;870.50;1561.60;;;;;;4993042;28;20024;-82
2023/09/09 13:07:42;;;;;;;0.20;0.20;;;870.50;1561.60;;;;;;4992740;28;20451;-81
2023/09/09 13:10:08;;;;;;;0.17;0.17;;;870.50;1536.00;;;;;;4994411;28;20023;-82
2023/09/09 13:12:34;;;;;;;0.32;0.32;;;845.70;1561.60;;;;;;4993545;28;20037;-82
2023/09/09 13:15:00;;;;;;;0.20;0.20;;;845.70;1536.00;;;;;;4993220;28;20023;-81
2023/09/09 13:17:26;;;;;;;0.35;0.20;;;870.40;1561.60;;;;;;4993508;28;20117;-82
2023/09/09 13:19:51;;;;;;;0.15;0.15;;;845.70;1510.40;;;;;;4994163;28;20062;-82
2023/09/09 13:22:17;;;;;;;0.35;0.28;;;845.70;1536.00;;;;;;4993166;28;20026;-81
2023/09/09 13:24:43;;;;;;;0.55;0.30;;;845.60;1510.40;;;;;;4992783;28;20046;-82
2023/09/09 13:27:08;;;;;;;0.47;0.32;;;845.70;1561.60;;;;;;4993132;28;20069;-81
2023/09/09 13:29:34;;;;;;;0.35;0.28;;;845.70;1536.00;;;;;;4993703;28;20030;-82
2023/09/09 13:32:00;;;;;;;0.30;0.25;;;845.70;1561.60;;;;;;4993260;28;20038;-82
2023/09/09 13:34:26;;;;;;;0.30;0.20;;;845.60;1536.00;;;;;;5008489;28;20052;-82
2023/09/09 13:36:52;;;;;;;1.20;0.40;;;845.70;1587.20;;;;;;5012604;28;20034;-81
2023/09/09 13:39:17;;;;;;;0.10;0.10;;;845.70;1561.60;;;;;;5012208;28;20110;-82
2023/09/09 13:41:43;;;;;;;0.40;0.30;;;845.70;1561.60;;;;;;5012514;28;20069;-82
2023/09/09 13:44:09;;;;;;;0.30;0.22;;;845.50;1561.60;;;;;;4996153;28;20033;-82
2023/09/09 13:46:35;;;;;;;0.45;0.30;;;845.50;1536.00;;;;;;5012174;28;20033;-82
2023/09/09 13:49:00;;;;;;;0.47;0.40;;;845.40;1587.20;;;;;;5012532;28;20025;-83
2023/09/09 13:51:26;;;;;;;0.25;0.25;;;845.50;1561.60;;;;;;5012521;28;20096;-82
2023/09/09 13:53:52;;;;;;;0.43;0.32;;;845.60;1561.60;;;;;;5016344;28;20081;-82
2023/09/09 13:56:18;;;;;;;0.20;0.20;;;845.60;1536.00;;;;;;5013358;28;20026;-82
2023/09/09 13:58:43;;;;;;;0.22;0.20;;;845.30;1536.00;;;;;;5013055;28;20104;-82
2023/09/09 14:01:09;;;;;;;0.45;0.30;;;845.40;1561.60;;;;;;5012567;28;20022;-81
2023/09/09 14:03:35;;;;;;;0.45;0.30;;;845.40;1561.60;;;;;;5012682;28;20026;-80
2023/09/09 14:06:01;;;;;;;0.63;0.40;;;845.40;1587.20;;;;;;5012690;28;20033;-82
2023/09/09 14:08:26;;;;;;;0.20;0.20;;;845.40;1561.60;;;;;;5013537;28;20125;-83
2023/09/09 14:10:52;;;;;;;0.20;0.20;;;845.40;1561.60;;;;;;5013589;28;20076;-82
2023/09/09 14:13:19;;;;;;;0.10;0.10;;;845.30;1536.00;;;;;;5013695;28;20097;-84
2023/09/09 14:15:46;;;;;;;0.15;0.15;;;845.20;1561.60;;;;;;5013055;28;20026;-83
2023/09/09 14:18:13;;;;;;;0.43;0.30;;;845.30;1536.00;;;;;;5014031;28;20029;-84
2023/09/09 14:20:39;;;;;;;0.35;0.30;;;845.20;1536.00;;;;;;5013962;28;20091;-85